Farmington, Utah
Current Conditions -  °F | °C
As of 3:58 PM on Monday 24 Nov 2014 (Local Time) from KHIF Reporting Station
Clear Clear  
Wind Chill: 35°   Ceiling: Unl
Heat Index: 40°   Visibility: 10mi
Dew Point: 19°   Wind: 7mph
Humidity: 43%   Direction: 310°NW
Pressure: 30.38"   Gusts: NA
Location:  40.98°N, 111.88°W
Report Text: KHIF 242258Z AUTO 31006KT 10SM CLR 04/M07 A3038 RMK AO2 SLP291 T00421073
Loading
Personal Weather Stations






























Interactive Weather Map New forecast layout! Learn more

10-Day Weather Forecast

Advertisements
Track Severe Weather on mobile